sensor_id;sensor_type;location;lat;lon;timestamp;P1;durP1;ratioP1;P2;durP2;ratioP2
25609;SDS011;13479;49.044;8.716;2022-09-27T04:15:27;11.35;;;2.35;;
25609;SDS011;13479;49.044;8.716;2022-09-27T04:17:52;15.40;;;2.25;;
25609;SDS011;13479;49.044;8.716;2022-09-27T04:20:17;12.25;;;2.45;;
25609;SDS011;13479;49.044;8.716;2022-09-27T04:22:43;11.13;;;1.90;;
25609;SDS011;13479;49.044;8.716;2022-09-27T04:25:09;10.68;;;2.08;;
25609;SDS011;13479;49.044;8.716;2022-09-27T04:27:35;10.75;;;2.60;;
25609;SDS011;13479;49.044;8.716;2022-09-27T04:30:02;9.50;;;2.00;;
25609;SDS011;13479;49.044;8.716;2022-09-27T04:32:28;6.53;;;2.08;;
25609;SDS011;13479;49.044;8.716;2022-09-27T04:34:54;5.72;;;1.63;;
25609;SDS011;13479;49.044;8.716;2022-09-27T04:37:37;8.15;;;1.73;;
25609;SDS011;13479;49.044;8.716;2022-09-27T04:40:03;7.07;;;1.70;;
25609;SDS011;13479;49.044;8.716;2022-09-27T04:42:29;6.63;;;1.88;;
25609;SDS011;13479;49.044;8.716;2022-09-27T04:44:54;5.85;;;1.80;;
25609;SDS011;13479;49.044;8.716;2022-09-27T04:47:19;10.93;;;1.90;;
25609;SDS011;13479;49.044;8.716;2022-09-27T04:49:45;9.13;;;1.50;;
25609;SDS011;13479;49.044;8.716;2022-09-27T04:52:11;8.95;;;1.77;;
25609;SDS011;13479;49.044;8.716;2022-09-27T04:54:39;9.07;;;1.75;;
25609;SDS011;13479;49.044;8.716;2022-09-27T04:57:05;8.00;;;1.60;;
25609;SDS011;13479;49.044;8.716;2022-09-27T04:59:30;8.80;;;1.50;;
25609;SDS011;13479;49.044;8.716;2022-09-27T05:01:56;7.53;;;1.70;;
25609;SDS011;13479;49.044;8.716;2022-09-27T05:04:24;7.32;;;1.25;;
25609;SDS011;13479;49.044;8.716;2022-09-27T05:06:49;5.88;;;1.40;;
25609;SDS011;13479;49.044;8.716;2022-09-27T05:09:14;6.25;;;1.30;;
25609;SDS011;13479;49.044;8.716;2022-09-27T05:11:40;7.82;;;1.33;;
25609;SDS011;13479;49.044;8.716;2022-09-27T05:14:05;8.77;;;1.52;;
25609;SDS011;13479;49.044;8.716;2022-09-27T05:16:31;4.82;;;1.25;;
25609;SDS011;13479;49.044;8.716;2022-09-27T05:18:57;9.30;;;1.33;;
25609;SDS011;13479;49.044;8.716;2022-09-27T05:21:22;7.90;;;1.85;;
25609;SDS011;13479;49.044;8.716;2022-09-27T05:23:48;9.90;;;1.20;;
25609;SDS011;13479;49.044;8.716;2022-09-27T05:26:13;4.97;;;1.20;;
25609;SDS011;13479;49.044;8.716;2022-09-27T05:28:38;7.22;;;1.27;;
25609;SDS011;13479;49.044;8.716;2022-09-27T05:31:08;5.63;;;1.30;;
25609;SDS011;13479;49.044;8.716;2022-09-27T05:33:35;9.98;;;1.45;;
25609;SDS011;13479;49.044;8.716;2022-09-27T05:36:00;5.38;;;1.13;;
25609;SDS011;13479;49.044;8.716;2022-09-27T05:38:26;5.32;;;1.23;;
25609;SDS011;13479;49.044;8.716;2022-09-27T05:40:51;4.20;;;1.20;;
25609;SDS011;13479;49.044;8.716;2022-09-27T05:43:17;7.78;;;1.83;;
25609;SDS011;13479;49.044;8.716;2022-09-27T05:45:42;7.03;;;1.63;;
25609;SDS011;13479;49.044;8.716;2022-09-27T05:48:08;6.72;;;1.65;;
25609;SDS011;13479;49.044;8.716;2022-09-27T05:50:34;7.50;;;1.67;;
25609;SDS011;13479;49.044;8.716;2022-09-27T05:53:00;7.60;;;1.60;;
25609;SDS011;13479;49.044;8.716;2022-09-27T05:55:25;11.88;;;1.60;;
25609;SDS011;13479;49.044;8.716;2022-09-27T05:57:55;8.43;;;1.60;;
25609;SDS011;13479;49.044;8.716;2022-09-27T06:00:22;7.00;;;1.35;;
25609;SDS011;13479;49.044;8.716;2022-09-27T06:03:00;7.80;;;1.48;;
25609;SDS011;13479;49.044;8.716;2022-09-27T06:05:28;4.38;;;1.50;;
25609;SDS011;13479;49.044;8.716;2022-09-27T06:07:58;5.05;;;1.30;;
25609;SDS011;13479;49.044;8.716;2022-09-27T06:10:25;5.15;;;1.30;;
25609;SDS011;13479;49.044;8.716;2022-09-27T06:12:51;6.90;;;1.50;;
25609;SDS011;13479;49.044;8.716;2022-09-27T06:15:16;4.50;;;1.33;;
25609;SDS011;13479;49.044;8.716;2022-09-27T06:17:42;3.30;;;1.30;;
25609;SDS011;13479;49.044;8.716;2022-09-27T06:20:07;5.32;;;1.38;;
25609;SDS011;13479;49.044;8.716;2022-09-27T06:22:33;5.97;;;1.30;;
25609;SDS011;13479;49.044;8.716;2022-09-27T06:25:00;6.00;;;1.15;;
25609;SDS011;13479;49.044;8.716;2022-09-27T06:27:27;5.53;;;1.10;;
25609;SDS011;13479;49.044;8.716;2022-09-27T06:29:53;1.75;;;1.10;;
25609;SDS011;13479;49.044;8.716;2022-09-27T06:32:19;7.43;;;1.48;;
25609;SDS011;13479;49.044;8.716;2022-09-27T06:34:45;3.80;;;0.98;;
25609;SDS011;13479;49.044;8.716;2022-09-27T06:37:10;2.60;;;0.98;;
25609;SDS011;13479;49.044;8.716;2022-09-27T06:39:36;2.47;;;1.10;;
25609;SDS011;13479;49.044;8.716;2022-09-27T06:42:01;3.10;;;1.10;;
25609;SDS011;13479;49.044;8.716;2022-09-27T06:44:27;4.85;;;1.20;;
25609;SDS011;13479;49.044;8.716;2022-09-27T06:46:52;9.07;;;1.38;;
25609;SDS011;13479;49.044;8.716;2022-09-27T06:49:19;2.78;;;0.90;;
25609;SDS011;13479;49.044;8.716;2022-09-27T06:51:44;3.72;;;0.90;;
25609;SDS011;13479;49.044;8.716;2022-09-27T06:54:10;1.58;;;0.60;;
25609;SDS011;13479;49.044;8.716;2022-09-27T06:56:35;3.63;;;0.95;;
25609;SDS011;13479;49.044;8.716;2022-09-27T06:59:01;4.03;;;0.98;;
25609;SDS011;13479;49.044;8.716;2022-09-27T07:01:45;2.38;;;0.85;;
25609;SDS011;13479;49.044;8.716;2022-09-27T07:04:10;4.45;;;0.88;;
25609;SDS011;13479;49.044;8.716;2022-09-27T07:06:37;1.00;;;0.60;;
25609;SDS011;13479;49.044;8.716;2022-09-27T07:09:02;3.90;;;1.10;;
25609;SDS011;13479;49.044;8.716;2022-09-27T07:11:30;3.38;;;1.08;;
25609;SDS011;13479;49.044;8.716;2022-09-27T07:14:01;1.40;;;0.80;;
25609;SDS011;13479;49.044;8.716;2022-09-27T07:16:28;2.85;;;0.93;;
25609;SDS011;13479;49.044;8.716;2022-09-27T07:18:55;6.07;;;1.00;;
25609;SDS011;13479;49.044;8.716;2022-09-27T07:21:21;0.90;;;0.68;;
25609;SDS011;13479;49.044;8.716;2022-09-27T07:23:46;5.97;;;1.10;;
25609;SDS011;13479;49.044;8.716;2022-09-27T07:26:12;2.20;;;0.80;;
25609;SDS011;13479;49.044;8.716;2022-09-27T07:28:37;2.67;;;0.80;;
25609;SDS011;13479;49.044;8.716;2022-09-27T07:31:05;4.57;;;0.73;;
25609;SDS011;13479;49.044;8.716;2022-09-27T07:33:32;4.97;;;0.90;;
25609;SDS011;13479;49.044;8.716;2022-09-27T07:35:58;2.55;;;0.75;;
25609;SDS011;13479;49.044;8.716;2022-09-27T07:38:24;3.20;;;0.70;;
25609;SDS011;13479;49.044;8.716;2022-09-27T07:40:49;2.78;;;0.75;;
25609;SDS011;13479;49.044;8.716;2022-09-27T07:43:14;3.17;;;0.98;;
25609;SDS011;13479;49.044;8.716;2022-09-27T07:45:40;3.40;;;0.80;;
25609;SDS011;13479;49.044;8.716;2022-09-27T07:48:05;3.92;;;1.08;;
25609;SDS011;13479;49.044;8.716;2022-09-27T07:50:32;8.52;;;0.82;;
25609;SDS011;13479;49.044;8.716;2022-09-27T07:52:58;3.55;;;0.82;;
25609;SDS011;13479;49.044;8.716;2022-09-27T07:55:23;2.05;;;0.90;;
25609;SDS011;13479;49.044;8.716;2022-09-27T07:57:49;2.35;;;0.82;;
25609;SDS011;13479;49.044;8.716;2022-09-27T08:00:15;2.15;;;0.80;;
25609;SDS011;13479;49.044;8.716;2022-09-27T08:02:43;1.75;;;0.63;;
25609;SDS011;13479;49.044;8.716;2022-09-27T08:05:10;1.50;;;0.73;;
25609;SDS011;13479;49.044;8.716;2022-09-27T08:07:36;0.93;;;0.50;;
25609;SDS011;13479;49.044;8.716;2022-09-27T08:10:03;2.60;;;0.90;;
25609;SDS011;13479;49.044;8.716;2022-09-27T08:12:29;2.63;;;0.70;;
25609;SDS011;13479;49.044;8.716;2022-09-27T08:14:55;2.63;;;0.80;;
25609;SDS011;13479;49.044;8.716;2022-09-27T08:17:25;2.22;;;0.63;;
25609;SDS011;13479;49.044;8.716;2022-09-27T08:19:50;2.47;;;0.80;;
25609;SDS011;13479;49.044;8.716;2022-09-27T08:22:16;2.17;;;0.70;;
25609;SDS011;13479;49.044;8.716;2022-09-27T08:24:41;2.20;;;0.82;;
25609;SDS011;13479;49.044;8.716;2022-09-27T08:27:06;1.40;;;0.60;;
25609;SDS011;13479;49.044;8.716;2022-09-27T08:29:33;5.28;;;1.10;;
25609;SDS011;13479;49.044;8.716;2022-09-27T08:31:58;3.42;;;0.90;;
25609;SDS011;13479;49.044;8.716;2022-09-27T08:34:24;3.28;;;1.00;;
25609;SDS011;13479;49.044;8.716;2022-09-27T08:36:49;6.00;;;0.77;;
25609;SDS011;13479;49.044;8.716;2022-09-27T08:39:14;4.82;;;1.20;;
25609;SDS011;13479;49.044;8.716;2022-09-27T08:41:45;4.03;;;0.95;;
25609;SDS011;13479;49.044;8.716;2022-09-27T08:49:32;5.38;;;1.10;;
25609;SDS011;13479;49.044;8.716;2022-09-27T08:52:14;6.07;;;0.95;;
25609;SDS011;13479;49.044;8.716;2022-09-27T08:54:44;2.83;;;1.00;;
25609;SDS011;13479;49.044;8.716;2022-09-27T08:57:11;2.53;;;0.90;;
25609;SDS011;13479;49.044;8.716;2022-09-27T08:59:40;3.38;;;0.90;;
25609;SDS011;13479;49.044;8.716;2022-09-27T09:02:19;2.95;;;1.20;;
25609;SDS011;13479;49.044;8.716;2022-09-27T09:04:49;4.40;;;1.00;;
25609;SDS011;13479;49.044;8.716;2022-09-27T09:08:01;2.92;;;0.80;;
25609;SDS011;13479;49.044;8.716;2022-09-27T09:16:43;3.35;;;0.77;;
25609;SDS011;13479;49.044;8.716;2022-09-27T09:30:03;5.68;;;1.35;;
25609;SDS011;13479;49.044;8.716;2022-09-27T09:35:43;3.70;;;1.05;;
25609;SDS011;13479;49.044;8.716;2022-09-27T09:38:19;4.97;;;1.33;;
25609;SDS011;13479;49.044;8.716;2022-09-27T09:40:57;3.55;;;1.10;;
25609;SDS011;13479;49.044;8.716;2022-09-27T09:43:47;5.25;;;1.10;;
25609;SDS011;13479;49.044;8.716;2022-09-27T09:49:04;5.03;;;1.40;;
25609;SDS011;13479;49.044;8.716;2022-09-27T09:51:44;9.55;;;1.38;;
25609;SDS011;13479;49.044;8.716;2022-09-27T09:54:18;3.63;;;1.10;;
25609;SDS011;13479;49.044;8.716;2022-09-27T09:56:57;4.35;;;1.40;;
25609;SDS011;13479;49.044;8.716;2022-09-27T09:59:29;6.47;;;1.40;;
25609;SDS011;13479;49.044;8.716;2022-09-27T10:04:49;5.00;;;1.10;;
25609;SDS011;13479;49.044;8.716;2022-09-27T10:07:14;3.95;;;1.13;;
25609;SDS011;13479;49.044;8.716;2022-09-27T10:09:44;5.72;;;0.80;;
25609;SDS011;13479;49.044;8.716;2022-09-27T10:12:09;3.67;;;1.00;;
25609;SDS011;13479;49.044;8.716;2022-09-27T10:14:35;4.22;;;1.10;;
25609;SDS011;13479;49.044;8.716;2022-09-27T10:17:03;3.70;;;0.88;;
25609;SDS011;13479;49.044;8.716;2022-09-27T10:19:34;2.47;;;1.10;;
25609;SDS011;13479;49.044;8.716;2022-09-27T10:22:02;6.00;;;1.20;;
25609;SDS011;13479;49.044;8.716;2022-09-27T10:27:21;5.50;;;1.23;;
25609;SDS011;13479;49.044;8.716;2022-09-27T10:29:54;5.32;;;1.20;;
25609;SDS011;13479;49.044;8.716;2022-09-27T10:32:22;4.63;;;1.40;;
25609;SDS011;13479;49.044;8.716;2022-09-27T10:34:51;5.28;;;1.40;;
25609;SDS011;13479;49.044;8.716;2022-09-27T10:39:46;5.63;;;1.45;;
25609;SDS011;13479;49.044;8.716;2022-09-27T10:42:30;6.72;;;1.38;;
25609;SDS011;13479;49.044;8.716;2022-09-27T10:44:56;6.20;;;1.63;;
25609;SDS011;13479;49.044;8.716;2022-09-27T10:47:22;5.20;;;1.25;;
25609;SDS011;13479;49.044;8.716;2022-09-27T10:49:50;3.67;;;1.20;;
25609;SDS011;13479;49.044;8.716;2022-09-27T10:52:20;3.67;;;1.00;;
25609;SDS011;13479;49.044;8.716;2022-09-27T10:54:54;4.28;;;1.00;;
25609;SDS011;13479;49.044;8.716;2022-09-27T10:57:24;3.85;;;1.13;;
25609;SDS011;13479;49.044;8.716;2022-09-27T10:59:54;4.75;;;1.10;;
25609;SDS011;13479;49.044;8.716;2022-09-27T11:07:49;4.45;;;1.20;;
25609;SDS011;13479;49.044;8.716;2022-09-27T11:10:35;5.40;;;1.10;;
25609;SDS011;13479;49.044;8.716;2022-09-27T11:13:07;4.97;;;1.35;;
25609;SDS011;13479;49.044;8.716;2022-09-27T11:30:08;2.33;;;0.50;;
25609;SDS011;13479;49.044;8.716;2022-09-27T11:32:49;2.78;;;0.40;;
25609;SDS011;13479;49.044;8.716;2022-09-27T11:38:23;3.83;;;0.60;;
25609;SDS011;13479;49.044;8.716;2022-09-27T11:57:32;2.15;;;0.45;;
25609;SDS011;13479;49.044;8.716;2022-09-27T12:05:53;0.80;;;0.40;;
25609;SDS011;13479;49.044;8.716;2022-09-27T12:14:08;0.68;;;0.30;;
25609;SDS011;13479;49.044;8.716;2022-09-27T12:16:32;1.05;;;0.40;;
25609;SDS011;13479;49.044;8.716;2022-09-27T12:19:01;1.58;;;0.40;;
25609;SDS011;13479;49.044;8.716;2022-09-27T12:21:29;1.17;;;0.40;;
25609;SDS011;13479;49.044;8.716;2022-09-27T12:23:56;2.75;;;0.50;;
25609;SDS011;13479;49.044;8.716;2022-09-27T12:26:25;1.25;;;0.40;;
25609;SDS011;13479;49.044;8.716;2022-09-27T12:28:59;0.98;;;0.40;;
25609;SDS011;13479;49.044;8.716;2022-09-27T12:31:30;1.30;;;0.30;;
25609;SDS011;13479;49.044;8.716;2022-09-27T12:34:03;2.38;;;0.40;;
25609;SDS011;13479;49.044;8.716;2022-09-27T12:37:02;1.80;;;0.40;;
25609;SDS011;13479;49.044;8.716;2022-09-27T12:39:40;0.73;;;0.30;;
25609;SDS011;13479;49.044;8.716;2022-09-27T12:42:13;2.35;;;0.38;;
25609;SDS011;13479;49.044;8.716;2022-09-27T12:44:44;3.30;;;0.45;;
25609;SDS011;13479;49.044;8.716;2022-09-27T12:52:42;1.23;;;0.40;;
25609;SDS011;13479;49.044;8.716;2022-09-27T13:01:05;1.88;;;0.57;;
25609;SDS011;13479;49.044;8.716;2022-09-27T13:07:16;3.60;;;0.47;;
25609;SDS011;13479;49.044;8.716;2022-09-27T13:12:48;0.70;;;0.40;;
25609;SDS011;13479;49.044;8.716;2022-09-27T13:15:17;3.38;;;0.50;;
25609;SDS011;13479;49.044;8.716;2022-09-27T13:17:58;1.83;;;0.60;;
25609;SDS011;13479;49.044;8.716;2022-09-27T13:20:36;0.93;;;0.30;;
25609;SDS011;13479;49.044;8.716;2022-09-27T13:31:06;3.15;;;0.60;;
25609;SDS011;13479;49.044;8.716;2022-09-27T13:39:02;2.28;;;0.63;;
25609;SDS011;13479;49.044;8.716;2022-09-27T14:00:04;3.33;;;0.52;;
25609;SDS011;13479;49.044;8.716;2022-09-27T14:02:38;1.48;;;0.63;;
25609;SDS011;13479;49.044;8.716;2022-09-27T14:05:16;2.63;;;1.00;;
25609;SDS011;13479;49.044;8.716;2022-09-27T14:07:45;1.35;;;0.70;;
25609;SDS011;13479;49.044;8.716;2022-09-27T14:10:15;2.95;;;0.70;;
25609;SDS011;13479;49.044;8.716;2022-09-27T14:12:42;2.13;;;0.80;;
25609;SDS011;13479;49.044;8.716;2022-09-27T14:15:11;2.72;;;0.70;;
25609;SDS011;13479;49.044;8.716;2022-09-27T14:17:43;2.55;;;0.80;;
25609;SDS011;13479;49.044;8.716;2022-09-27T14:20:27;3.33;;;0.88;;
25609;SDS011;13479;49.044;8.716;2022-09-27T14:22:55;7.57;;;1.10;;
25609;SDS011;13479;49.044;8.716;2022-09-27T14:25:21;2.58;;;0.80;;
25609;SDS011;13479;49.044;8.716;2022-09-27T14:27:46;2.88;;;0.93;;
25609;SDS011;13479;49.044;8.716;2022-09-27T14:30:16;3.50;;;0.90;;
25609;SDS011;13479;49.044;8.716;2022-09-27T14:32:50;1.08;;;0.50;;
25609;SDS011;13479;49.044;8.716;2022-09-27T14:38:11;2.60;;;0.70;;
25609;SDS011;13479;49.044;8.716;2022-09-27T16:20:30;1.17;;;0.50;;
25609;SDS011;13479;49.044;8.716;2022-09-27T16:22:57;4.10;;;0.73;;
25609;SDS011;13479;49.044;8.716;2022-09-27T16:25:23;3.03;;;0.90;;
25609;SDS011;13479;49.044;8.716;2022-09-27T16:27:49;2.83;;;1.00;;
25609;SDS011;13479;49.044;8.716;2022-09-27T16:30:17;3.08;;;0.90;;
25609;SDS011;13479;49.044;8.716;2022-09-27T16:32:43;3.00;;;0.80;;
25609;SDS011;13479;49.044;8.716;2022-09-27T16:35:11;1.75;;;0.90;;
25609;SDS011;13479;49.044;8.716;2022-09-27T16:37:37;4.97;;;0.70;;
25609;SDS011;13479;49.044;8.716;2022-09-27T16:40:04;2.90;;;0.93;;
25609;SDS011;13479;49.044;8.716;2022-09-27T16:42:32;3.65;;;0.90;;
25609;SDS011;13479;49.044;8.716;2022-09-27T16:44:57;3.03;;;0.82;;
25609;SDS011;13479;49.044;8.716;2022-09-27T16:47:22;3.47;;;0.90;;
25609;SDS011;13479;49.044;8.716;2022-09-27T16:49:48;2.50;;;0.52;;
25609;SDS011;13479;49.044;8.716;2022-09-27T16:52:32;2.13;;;0.60;;
25609;SDS011;13479;49.044;8.716;2022-09-27T16:54:58;1.98;;;0.70;;
25609;SDS011;13479;49.044;8.716;2022-09-27T16:57:24;2.17;;;0.68;;
25609;SDS011;13479;49.044;8.716;2022-09-27T16:59:52;2.22;;;0.70;;
25609;SDS011;13479;49.044;8.716;2022-09-27T17:02:17;1.60;;;0.73;;
25609;SDS011;13479;49.044;8.716;2022-09-27T17:04:43;3.88;;;1.02;;
25609;SDS011;13479;49.044;8.716;2022-09-27T17:07:08;2.55;;;0.98;;
25609;SDS011;13479;49.044;8.716;2022-09-27T17:09:33;2.88;;;1.20;;
25609;SDS011;13479;49.044;8.716;2022-09-27T17:11:58;2.00;;;1.05;;
25609;SDS011;13479;49.044;8.716;2022-09-27T17:14:24;3.75;;;1.33;;
25609;SDS011;13479;49.044;8.716;2022-09-27T17:16:51;4.35;;;1.27;;
25609;SDS011;13479;49.044;8.716;2022-09-27T17:19:17;4.85;;;1.20;;
25609;SDS011;13479;49.044;8.716;2022-09-27T17:21:43;3.40;;;1.15;;
25609;SDS011;13479;49.044;8.716;2022-09-27T17:24:09;3.92;;;1.13;;
25609;SDS011;13479;49.044;8.716;2022-09-27T17:26:35;6.47;;;1.02;;
25609;SDS011;13479;49.044;8.716;2022-09-27T17:29:00;4.75;;;1.10;;
25609;SDS011;13479;49.044;8.716;2022-09-27T17:31:26;5.57;;;1.63;;
25609;SDS011;13479;49.044;8.716;2022-09-27T17:33:52;3.50;;;1.20;;
25609;SDS011;13479;49.044;8.716;2022-09-27T17:36:19;4.57;;;0.93;;
25609;SDS011;13479;49.044;8.716;2022-09-27T17:38:47;3.83;;;1.02;;
25609;SDS011;13479;49.044;8.716;2022-09-27T17:41:14;2.75;;;1.10;;
25609;SDS011;13479;49.044;8.716;2022-09-27T17:43:42;4.78;;;0.77;;
25609;SDS011;13479;49.044;8.716;2022-09-27T17:46:16;2.23;;;0.90;;
25609;SDS011;13479;49.044;8.716;2022-09-27T17:48:42;2.65;;;0.68;;
25609;SDS011;13479;49.044;8.716;2022-09-27T17:51:26;2.93;;;0.80;;
25609;SDS011;13479;49.044;8.716;2022-09-27T17:53:51;2.63;;;0.70;;
25609;SDS011;13479;49.044;8.716;2022-09-27T17:56:17;2.50;;;0.90;;
25609;SDS011;13479;49.044;8.716;2022-09-27T17:58:46;2.67;;;0.98;;
25609;SDS011;13479;49.044;8.716;2022-09-27T18:01:13;4.72;;;0.90;;
25609;SDS011;13479;49.044;8.716;2022-09-27T18:03:39;3.23;;;0.80;;
25609;SDS011;13479;49.044;8.716;2022-09-27T18:06:05;1.70;;;0.70;;
25609;SDS011;13479;49.044;8.716;2022-09-27T18:08:31;3.20;;;0.70;;
25609;SDS011;13479;49.044;8.716;2022-09-27T18:11:02;4.35;;;0.75;;
25609;SDS011;13479;49.044;8.716;2022-09-27T18:13:31;2.15;;;0.90;;
25609;SDS011;13479;49.044;8.716;2022-09-27T18:16:04;2.30;;;0.77;;
25609;SDS011;13479;49.044;8.716;2022-09-27T18:18:37;1.95;;;0.70;;
25609;SDS011;13479;49.044;8.716;2022-09-27T18:21:05;5.18;;;1.10;;
25609;SDS011;13479;49.044;8.716;2022-09-27T18:23:31;2.58;;;0.82;;
25609;SDS011;13479;49.044;8.716;2022-09-27T18:25:57;3.13;;;0.80;;
25609;SDS011;13479;49.044;8.716;2022-09-27T18:28:26;2.45;;;0.80;;
25609;SDS011;13479;49.044;8.716;2022-09-27T18:30:53;3.67;;;0.73;;
25609;SDS011;13479;49.044;8.716;2022-09-27T18:33:19;3.73;;;1.03;;
25609;SDS011;13479;49.044;8.716;2022-09-27T18:35:45;3.77;;;0.80;;
25609;SDS011;13479;49.044;8.716;2022-09-27T18:38:11;3.57;;;0.97;;
25609;SDS011;13479;49.044;8.716;2022-09-27T18:40:36;2.27;;;0.90;;
25609;SDS011;13479;49.044;8.716;2022-09-27T18:43:01;2.58;;;0.90;;
25609;SDS011;13479;49.044;8.716;2022-09-27T18:45:26;1.93;;;0.90;;
25609;SDS011;13479;49.044;8.716;2022-09-27T18:47:52;3.08;;;1.30;;
25609;SDS011;13479;49.044;8.716;2022-09-27T18:50:17;3.53;;;1.40;;
25609;SDS011;13479;49.044;8.716;2022-09-27T18:52:42;2.50;;;1.00;;
25609;SDS011;13479;49.044;8.716;2022-09-27T18:55:08;3.70;;;1.20;;
25609;SDS011;13479;49.044;8.716;2022-09-27T18:57:33;5.15;;;1.45;;
25609;SDS011;13479;49.044;8.716;2022-09-27T19:00:01;5.10;;;1.20;;
25609;SDS011;13479;49.044;8.716;2022-09-27T19:02:28;1.83;;;0.80;;
25609;SDS011;13479;49.044;8.716;2022-09-27T19:04:53;4.65;;;1.10;;
25609;SDS011;13479;49.044;8.716;2022-09-27T19:07:18;3.67;;;0.98;;
25609;SDS011;13479;49.044;8.716;2022-09-27T19:09:44;2.38;;;0.90;;
25609;SDS011;13479;49.044;8.716;2022-09-27T19:12:09;2.20;;;0.77;;
25609;SDS011;13479;49.044;8.716;2022-09-27T19:14:34;5.00;;;1.00;;
25609;SDS011;13479;49.044;8.716;2022-09-27T19:17:00;3.47;;;1.10;;
25609;SDS011;13479;49.044;8.716;2022-09-27T19:19:25;2.63;;;1.00;;
25609;SDS011;13479;49.044;8.716;2022-09-27T19:21:50;3.23;;;0.83;;
25609;SDS011;13479;49.044;8.716;2022-09-27T19:24:15;4.43;;;0.90;;
25609;SDS011;13479;49.044;8.716;2022-09-27T19:26:42;3.83;;;0.80;;
25609;SDS011;13479;49.044;8.716;2022-09-27T19:29:08;2.28;;;0.70;;
25609;SDS011;13479;49.044;8.716;2022-09-27T19:31:34;3.13;;;1.00;;
25609;SDS011;13479;49.044;8.716;2022-09-27T19:33:59;2.38;;;0.63;;
25609;SDS011;13479;49.044;8.716;2022-09-27T19:36:25;3.22;;;0.73;;
25609;SDS011;13479;49.044;8.716;2022-09-27T19:38:50;3.15;;;0.63;;
25609;SDS011;13479;49.044;8.716;2022-09-27T19:41:16;3.53;;;0.77;;
25609;SDS011;13479;49.044;8.716;2022-09-27T19:43:42;1.50;;;0.70;;
25609;SDS011;13479;49.044;8.716;2022-09-27T19:46:15;4.17;;;0.63;;
25609;SDS011;13479;49.044;8.716;2022-09-27T19:48:42;4.00;;;0.93;;
25609;SDS011;13479;49.044;8.716;2022-09-27T19:51:13;2.55;;;0.85;;
25609;SDS011;13479;49.044;8.716;2022-09-27T19:53:40;1.10;;;0.70;;
25609;SDS011;13479;49.044;8.716;2022-09-27T19:56:06;2.77;;;0.70;;
25609;SDS011;13479;49.044;8.716;2022-09-27T19:58:33;2.25;;;0.50;;
25609;SDS011;13479;49.044;8.716;2022-09-27T20:03:27;1.67;;;0.60;;
25609;SDS011;13479;49.044;8.716;2022-09-27T20:05:54;1.90;;;0.50;;
25609;SDS011;13479;49.044;8.716;2022-09-27T20:08:20;2.17;;;0.70;;
25609;SDS011;13479;49.044;8.716;2022-09-27T20:10:56;3.73;;;0.97;;
25609;SDS011;13479;49.044;8.716;2022-09-27T20:13:23;1.40;;;0.70;;
25609;SDS011;13479;49.044;8.716;2022-09-27T20:15:49;4.20;;;0.70;;
25609;SDS011;13479;49.044;8.716;2022-09-27T20:18:15;2.60;;;1.00;;
25609;SDS011;13479;49.044;8.716;2022-09-27T20:20:40;1.00;;;0.40;;
25609;SDS011;13479;49.044;8.716;2022-09-27T20:23:06;1.87;;;0.50;;
25609;SDS011;13479;49.044;8.716;2022-09-27T20:25:31;2.07;;;0.60;;
25609;SDS011;13479;49.044;8.716;2022-09-27T20:27:57;2.00;;;0.60;;
25609;SDS011;13479;49.044;8.716;2022-09-27T20:30:22;1.00;;;0.57;;
25609;SDS011;13479;49.044;8.716;2022-09-27T20:32:50;1.53;;;0.53;;
25609;SDS011;13479;49.044;8.716;2022-09-27T20:35:36;1.60;;;0.60;;
25609;SDS011;13479;49.044;8.716;2022-09-27T20:38:01;2.15;;;0.60;;
25609;SDS011;13479;49.044;8.716;2022-09-27T20:40:26;1.97;;;0.73;;
25609;SDS011;13479;49.044;8.716;2022-09-27T20:42:53;5.43;;;0.70;;
25609;SDS011;13479;49.044;8.716;2022-09-27T20:45:18;1.45;;;0.60;;
25609;SDS011;13479;49.044;8.716;2022-09-27T20:47:43;1.03;;;0.50;;
25609;SDS011;13479;49.044;8.716;2022-09-27T20:50:08;3.75;;;0.50;;
25609;SDS011;13479;49.044;8.716;2022-09-27T20:52:34;1.77;;;0.37;;
25609;SDS011;13479;49.044;8.716;2022-09-27T20:54:59;1.45;;;0.30;;
25609;SDS011;13479;49.044;8.716;2022-09-27T20:57:24;1.23;;;0.40;;
25609;SDS011;13479;49.044;8.716;2022-09-27T20:59:51;1.27;;;0.43;;
